createdAt,value
2022-10-04T00:00:16.681Z,16.73
2022-10-04T00:01:18.960Z,16.73
2022-10-04T00:02:21.867Z,16.75
2022-10-04T00:03:23.691Z,16.74
2022-10-04T00:04:25.570Z,16.74
2022-10-04T00:05:27.413Z,16.74
2022-10-04T00:06:29.649Z,16.75
2022-10-04T00:07:31.482Z,16.75
2022-10-04T00:08:33.325Z,16.75
2022-10-04T00:09:35.201Z,16.75
2022-10-04T00:10:37.129Z,16.75
2022-10-04T00:11:39.069Z,16.76
2022-10-04T00:12:41.101Z,16.76
2022-10-04T00:13:43.205Z,16.76
2022-10-04T00:14:45.071Z,16.76
2022-10-04T00:15:47.056Z,16.75
2022-10-04T00:16:48.947Z,16.74
2022-10-04T00:17:50.784Z,16.73
2022-10-04T00:18:52.634Z,16.73
2022-10-04T00:19:54.479Z,16.73
2022-10-04T00:20:56.305Z,16.73
2022-10-04T00:21:58.144Z,16.75
2022-10-04T00:22:59.973Z,16.75
2022-10-04T00:24:01.813Z,16.75
2022-10-04T00:25:03.672Z,16.75
2022-10-04T00:26:06.021Z,16.75
2022-10-04T00:27:07.857Z,16.76
2022-10-04T00:28:09.753Z,16.72
2022-10-04T00:29:11.647Z,16.77
2022-10-04T00:30:13.954Z,16.77
2022-10-04T00:31:15.843Z,16.77
2022-10-04T00:32:17.703Z,16.77
2022-10-04T00:33:19.528Z,16.78
2022-10-04T00:34:21.371Z,16.78
2022-10-04T00:35:23.257Z,16.78
2022-10-04T00:36:25.294Z,16.79
2022-10-04T00:37:27.234Z,16.79
2022-10-04T00:38:29.073Z,16.79
2022-10-04T00:39:30.908Z,16.79
2022-10-04T00:40:32.906Z,16.79
2022-10-04T00:41:34.742Z,16.79
2022-10-04T00:42:36.565Z,16.78
2022-10-04T00:43:38.388Z,16.79
2022-10-04T00:44:40.312Z,16.79
2022-10-04T00:45:42.187Z,16.78
2022-10-04T00:46:44.137Z,16.78
2022-10-04T00:47:45.976Z,16.78
2022-10-04T00:48:47.815Z,16.78
2022-10-04T00:49:49.662Z,16.78
2022-10-04T00:50:51.734Z,16.77
2022-10-04T00:51:53.554Z,16.77
2022-10-04T00:52:55.400Z,16.77
2022-10-04T00:53:57.241Z,16.77
2022-10-04T00:54:59.066Z,16.75
2022-10-04T00:56:00.940Z,16.75
2022-10-04T00:57:02.796Z,16.75
2022-10-04T00:58:04.626Z,16.75
2022-10-04T00:59:06.455Z,16.73
2022-10-04T01:00:08.477Z,16.72
2022-10-04T01:01:11.186Z,16.71
2022-10-04T01:02:13.206Z,16.71
2022-10-04T01:03:15.033Z,16.71
2022-10-04T01:04:16.883Z,16.71
2022-10-04T01:05:18.709Z,16.71
2022-10-04T01:06:20.573Z,16.71
2022-10-04T01:07:22.457Z,16.71
2022-10-04T01:08:24.300Z,16.71
2022-10-04T01:09:26.113Z,16.70
2022-10-04T01:10:28.047Z,16.68
2022-10-04T01:11:29.899Z,16.66
2022-10-04T01:12:31.733Z,16.65
2022-10-04T01:13:33.705Z,16.62
2022-10-04T01:14:35.511Z,16.62
2022-10-04T01:15:37.455Z,16.60
2022-10-04T01:16:39.588Z,16.59
2022-10-04T01:17:41.407Z,16.58
2022-10-04T01:18:43.230Z,16.56
2022-10-04T01:19:45.081Z,16.55
2022-10-04T01:20:47.016Z,16.55
2022-10-04T01:21:48.890Z,16.53
2022-10-04T01:22:50.713Z,16.53
2022-10-04T01:23:52.566Z,16.53
2022-10-04T01:24:54.402Z,16.51
2022-10-04T01:25:56.252Z,16.51
2022-10-04T01:26:58.204Z,16.51
2022-10-04T01:28:00.056Z,16.50
2022-10-04T01:29:01.926Z,16.50
2022-10-04T01:30:03.827Z,16.50
2022-10-04T01:31:05.688Z,16.48
2022-10-04T01:32:07.523Z,16.48
2022-10-04T01:33:09.327Z,16.50
2022-10-04T01:34:11.131Z,16.50
2022-10-04T01:35:12.931Z,16.50
2022-10-04T01:36:14.960Z,16.50
2022-10-04T01:37:16.788Z,16.50
2022-10-04T01:38:18.580Z,16.51
2022-10-04T01:39:20.377Z,16.50
2022-10-04T01:40:22.206Z,16.50
2022-10-04T01:41:24.011Z,16.50
2022-10-04T01:42:25.834Z,16.48
2022-10-04T01:43:27.630Z,16.48
2022-10-04T01:44:29.437Z,16.47
2022-10-04T01:45:31.265Z,16.45
2022-10-04T01:46:33.340Z,16.45
2022-10-04T01:47:35.234Z,16.44
2022-10-04T01:48:37.067Z,16.44
2022-10-04T01:49:38.848Z,16.43
2022-10-04T01:50:40.748Z,16.44
2022-10-04T01:51:42.799Z,16.42
2022-10-04T01:52:44.805Z,16.44
2022-10-04T01:53:46.614Z,16.43
2022-10-04T01:54:48.414Z,16.44
2022-10-04T01:55:50.215Z,16.45
2022-10-04T01:56:52.032Z,16.45
2022-10-04T01:57:53.869Z,16.44
2022-10-04T01:58:55.683Z,16.45
2022-10-04T01:59:57.493Z,16.44
2022-10-04T02:00:59.344Z,16.44
2022-10-04T02:02:01.360Z,16.43
2022-10-04T02:03:05.000Z,16.42
2022-10-04T02:04:06.991Z,16.42
2022-10-04T02:05:08.892Z,16.42
2022-10-04T02:06:11.524Z,16.41
2022-10-04T02:07:13.321Z,16.40
2022-10-04T02:08:15.174Z,16.41
2022-10-04T02:09:16.984Z,16.41
2022-10-04T02:10:18.996Z,16.41
2022-10-04T02:11:20.818Z,16.40
2022-10-04T02:12:22.610Z,16.41
2022-10-04T02:13:24.483Z,16.39
2022-10-04T02:14:26.276Z,16.39
2022-10-04T02:15:28.077Z,16.40
2022-10-04T02:16:30.020Z,16.37
2022-10-04T02:17:32.024Z,16.37
2022-10-04T02:18:33.856Z,16.37
2022-10-04T02:19:35.680Z,16.37
2022-10-04T02:20:37.481Z,16.36
2022-10-04T02:21:39.828Z,16.37
2022-10-04T02:22:41.790Z,16.37
2022-10-04T02:23:43.649Z,16.36
2022-10-04T02:24:45.466Z,16.36
2022-10-04T02:25:47.282Z,16.36
2022-10-04T02:26:49.090Z,16.37
2022-10-04T02:27:50.953Z,16.37
2022-10-04T02:28:52.850Z,16.37
2022-10-04T02:29:54.667Z,16.36
2022-10-04T02:30:56.613Z,16.36
2022-10-04T02:31:58.372Z,16.36
2022-10-04T02:33:00.208Z,16.36
2022-10-04T02:34:02.070Z,16.35
2022-10-04T02:35:03.840Z,16.36
2022-10-04T02:36:05.739Z,16.34
2022-10-04T02:37:07.546Z,16.34
2022-10-04T02:38:09.346Z,16.34
2022-10-04T02:39:11.192Z,16.34
2022-10-04T02:40:13.914Z,16.34
2022-10-04T02:41:16.211Z,16.29
2022-10-04T02:42:17.916Z,16.34
2022-10-04T02:43:19.723Z,16.34
2022-10-04T02:44:21.553Z,16.33
2022-10-04T02:45:23.385Z,16.33
2022-10-04T02:46:25.646Z,16.33
2022-10-04T02:47:27.593Z,16.33
2022-10-04T02:48:29.480Z,16.32
2022-10-04T02:49:31.328Z,16.31
2022-10-04T02:50:33.042Z,16.30
2022-10-04T02:51:34.833Z,16.30
2022-10-04T02:52:36.641Z,16.30
2022-10-04T02:53:38.447Z,16.29
2022-10-04T02:54:40.281Z,16.29
2022-10-04T02:55:42.103Z,16.29
2022-10-04T02:56:43.998Z,16.28
2022-10-04T02:57:45.821Z,16.27
2022-10-04T02:58:47.628Z,16.26
2022-10-04T02:59:49.475Z,16.27
2022-10-04T03:00:51.413Z,16.26
2022-10-04T03:01:53.334Z,16.26
2022-10-04T03:02:55.223Z,16.26
2022-10-04T03:03:57.505Z,16.24
2022-10-04T03:04:59.351Z,16.23
2022-10-04T03:06:01.160Z,16.23
2022-10-04T03:07:02.964Z,16.23
2022-10-04T03:08:04.767Z,16.22
2022-10-04T03:09:06.790Z,16.21
2022-10-04T03:10:08.833Z,16.20
2022-10-04T03:11:10.900Z,16.19
2022-10-04T03:12:12.708Z,16.19
2022-10-04T03:13:14.408Z,16.18
2022-10-04T03:14:16.217Z,16.18
2022-10-04T03:15:18.074Z,16.15
2022-10-04T03:16:19.940Z,16.16
2022-10-04T03:17:21.667Z,16.16
2022-10-04T03:18:23.500Z,16.16
2022-10-04T03:19:25.386Z,16.15
2022-10-04T03:20:27.434Z,16.15
2022-10-04T03:21:29.240Z,16.13
2022-10-04T03:22:31.057Z,16.12
2022-10-04T03:23:32.864Z,16.12
2022-10-04T03:24:34.677Z,16.11
2022-10-04T03:25:36.542Z,16.12
2022-10-04T03:26:38.734Z,16.11
2022-10-04T03:27:40.544Z,16.10
2022-10-04T03:28:42.581Z,16.09
2022-10-04T03:29:44.381Z,16.08
2022-10-04T03:30:46.223Z,16.08
2022-10-04T03:31:48.121Z,16.07
2022-10-04T03:32:49.937Z,16.04
2022-10-04T03:33:51.736Z,16.07
2022-10-04T03:34:53.562Z,16.06
2022-10-04T03:35:55.412Z,16.05
2022-10-04T03:36:57.221Z,16.04
2022-10-04T03:37:59.035Z,16.05
2022-10-04T03:39:00.831Z,16.04
2022-10-04T03:40:02.653Z,16.06
2022-10-04T03:41:04.553Z,16.04
2022-10-04T03:42:06.369Z,16.05
2022-10-04T03:43:08.190Z,16.04
2022-10-04T03:44:10.023Z,16.05
2022-10-04T03:45:11.865Z,16.05
2022-10-04T03:46:13.898Z,16.06
2022-10-04T03:47:15.684Z,16.06
2022-10-04T03:48:17.529Z,16.06
2022-10-04T03:49:19.368Z,16.05
2022-10-04T03:50:21.267Z,16.05
2022-10-04T03:51:23.144Z,16.05
2022-10-04T03:52:25.022Z,16.04
2022-10-04T03:53:26.858Z,16.04
2022-10-04T03:54:28.681Z,16.04
2022-10-04T03:55:30.537Z,16.03
2022-10-04T03:56:32.435Z,16.01
2022-10-04T03:57:34.253Z,16.01
2022-10-04T03:58:36.072Z,16.01
2022-10-04T03:59:37.952Z,16.00
2022-10-04T04:00:39.758Z,15.99
2022-10-04T04:01:41.889Z,15.99
2022-10-04T04:02:46.265Z,15.98
2022-10-04T04:03:47.542Z,15.97
2022-10-04T04:04:49.384Z,15.95
2022-10-04T04:05:51.249Z,15.94
2022-10-04T04:06:53.124Z,15.93
2022-10-04T04:07:54.970Z,15.93
2022-10-04T04:08:56.804Z,15.92
2022-10-04T04:09:58.641Z,15.91
2022-10-04T04:11:00.471Z,15.91
2022-10-04T04:12:02.322Z,15.91
2022-10-04T04:13:04.170Z,15.91
2022-10-04T04:14:06.003Z,15.91
2022-10-04T04:15:07.826Z,15.91
2022-10-04T04:16:10.156Z,15.90
2022-10-04T04:17:12.053Z,15.90
2022-10-04T04:18:13.885Z,15.91
2022-10-04T04:19:15.722Z,15.90
2022-10-04T04:20:17.800Z,15.91
2022-10-04T04:21:19.653Z,15.91
2022-10-04T04:22:21.511Z,15.89
2022-10-04T04:23:23.406Z,15.90
2022-10-04T04:24:25.173Z,15.90
2022-10-04T04:25:26.978Z,15.90
2022-10-04T04:26:28.803Z,15.91
2022-10-04T04:27:30.672Z,15.90
2022-10-04T04:28:32.619Z,15.91
2022-10-04T04:29:34.570Z,15.91
2022-10-04T04:30:36.382Z,15.91
2022-10-04T04:31:38.274Z,15.91
2022-10-04T04:32:40.209Z,15.91
2022-10-04T04:33:42.014Z,15.91
2022-10-04T04:34:43.836Z,15.92
2022-10-04T04:35:45.685Z,15.91
2022-10-04T04:36:47.559Z,15.92
2022-10-04T04:37:49.414Z,15.93
2022-10-04T04:38:51.237Z,15.93
2022-10-04T04:39:53.077Z,15.94
2022-10-04T04:40:55.121Z,15.94
2022-10-04T04:41:56.958Z,15.95
2022-10-04T04:42:58.811Z,15.97
2022-10-04T04:44:00.644Z,15.99
2022-10-04T04:45:02.467Z,16.00
2022-10-04T04:46:26.179Z,16.01
2022-10-04T04:47:07.939Z,16.03
2022-10-04T04:48:09.807Z,16.04
2022-10-04T04:49:11.654Z,16.06
2022-10-04T04:50:13.582Z,16.07
2022-10-04T04:51:15.517Z,16.08
2022-10-04T04:52:17.364Z,16.09
2022-10-04T04:53:19.234Z,16.12
2022-10-04T04:54:21.078Z,16.15
2022-10-04T04:55:22.879Z,16.17
2022-10-04T04:56:24.718Z,16.18
2022-10-04T04:57:26.550Z,16.19
2022-10-04T04:58:28.394Z,16.21
2022-10-04T04:59:30.250Z,16.22
2022-10-04T05:00:32.055Z,16.24
2022-10-04T05:01:34.025Z,16.26
2022-10-04T05:02:35.899Z,16.28
2022-10-04T05:03:38.373Z,16.28
2022-10-04T05:04:40.203Z,16.30
2022-10-04T05:05:42.056Z,16.32
2022-10-04T05:06:43.984Z,16.34
2022-10-04T05:07:45.838Z,16.36
2022-10-04T05:08:47.700Z,16.37
2022-10-04T05:09:49.505Z,16.40
2022-10-04T05:10:51.332Z,16.42
2022-10-04T05:11:53.161Z,16.43
2022-10-04T05:12:55.009Z,16.43
2022-10-04T05:13:56.868Z,16.44
2022-10-04T05:14:58.715Z,16.46
2022-10-04T05:16:00.574Z,16.49
2022-10-04T05:17:02.379Z,16.50
2022-10-04T05:18:04.205Z,16.52
2022-10-04T05:19:06.081Z,16.55
2022-10-04T05:20:08.228Z,16.54
2022-10-04T05:21:10.054Z,16.57
2022-10-04T05:22:11.888Z,16.57
2022-10-04T05:23:14.753Z,16.58
2022-10-04T05:24:16.633Z,16.61
2022-10-04T05:25:18.475Z,16.62
2022-10-04T05:26:20.817Z,16.63
2022-10-04T05:27:22.641Z,16.63
2022-10-04T05:28:24.565Z,16.65
2022-10-04T05:29:26.426Z,16.66
2022-10-04T05:30:28.263Z,16.69
2022-10-04T05:31:30.133Z,16.70
2022-10-04T05:32:31.891Z,16.73
2022-10-04T05:33:34.031Z,16.74
2022-10-04T05:34:35.891Z,16.76
2022-10-04T05:35:37.734Z,16.77
2022-10-04T05:36:39.672Z,16.79
2022-10-04T05:37:41.507Z,16.80
2022-10-04T05:38:43.363Z,16.81
2022-10-04T05:39:45.241Z,16.82
2022-10-04T05:40:47.094Z,16.85
2022-10-04T05:41:48.925Z,16.87
2022-10-04T05:42:50.761Z,16.88
2022-10-04T05:43:52.591Z,16.89
2022-10-04T05:44:54.468Z,16.93
2022-10-04T05:45:56.369Z,16.93
2022-10-04T05:46:58.164Z,16.95
2022-10-04T05:47:59.989Z,16.98
2022-10-04T05:49:01.801Z,16.99
2022-10-04T05:50:03.781Z,17.00
2022-10-04T05:51:05.633Z,17.00
2022-10-04T05:52:07.431Z,17.03
2022-10-04T05:53:10.609Z,17.04
2022-10-04T05:54:13.156Z,17.06
2022-10-04T05:55:15.017Z,17.07
2022-10-04T05:56:16.979Z,17.07
2022-10-04T05:57:19.068Z,17.07
2022-10-04T05:58:20.905Z,17.06
2022-10-04T05:59:22.774Z,17.08
2022-10-04T06:00:24.737Z,17.09
2022-10-04T06:01:26.640Z,17.09
2022-10-04T06:02:28.561Z,17.11
2022-10-04T06:03:30.615Z,17.12
2022-10-04T06:04:33.645Z,17.13
2022-10-04T06:05:35.899Z,17.13
2022-10-04T06:06:38.019Z,17.14
2022-10-04T06:07:40.940Z,17.15
2022-10-04T06:08:42.835Z,17.16
2022-10-04T06:09:44.743Z,17.18
2022-10-04T06:10:46.680Z,17.18
2022-10-04T06:11:48.506Z,17.19
2022-10-04T06:12:50.331Z,17.21
2022-10-04T06:13:52.130Z,17.23
2022-10-04T06:14:53.935Z,17.23
2022-10-04T06:15:55.792Z,17.24
2022-10-04T06:16:57.768Z,17.26
2022-10-04T06:17:59.591Z,17.27
2022-10-04T06:19:02.606Z,17.27
2022-10-04T06:20:04.500Z,17.28
2022-10-04T06:21:06.347Z,17.29
2022-10-04T06:22:08.172Z,17.29
2022-10-04T06:23:09.971Z,17.31
2022-10-04T06:24:11.789Z,17.31
2022-10-04T06:25:13.621Z,17.32
2022-10-04T06:26:15.717Z,17.32
2022-10-04T06:27:17.534Z,17.34
2022-10-04T06:28:19.407Z,17.35
2022-10-04T06:29:21.250Z,17.36
2022-10-04T06:30:23.060Z,17.36
2022-10-04T06:31:24.913Z,17.38
2022-10-04T06:32:26.732Z,17.38
2022-10-04T06:33:28.571Z,17.39
2022-10-04T06:34:30.376Z,17.41
2022-10-04T06:35:32.178Z,17.41
2022-10-04T06:36:34.150Z,17.42
2022-10-04T06:37:35.969Z,17.42
2022-10-04T06:38:37.827Z,17.43
2022-10-04T06:39:39.647Z,17.44
2022-10-04T06:40:41.755Z,17.44
2022-10-04T06:41:43.947Z,17.45
2022-10-04T06:42:45.909Z,17.47
2022-10-04T06:43:47.706Z,17.48
2022-10-04T06:44:49.513Z,17.49
2022-10-04T06:45:51.353Z,17.49
2022-10-04T06:46:53.165Z,17.49
2022-10-04T06:47:54.976Z,17.51
2022-10-04T06:48:56.776Z,17.52
2022-10-04T06:49:58.596Z,17.51
2022-10-04T06:51:00.502Z,17.50
2022-10-04T06:52:02.381Z,17.52
2022-10-04T06:53:04.185Z,17.53
2022-10-04T06:54:05.990Z,17.53
2022-10-04T06:55:07.800Z,17.54
2022-10-04T06:56:10.711Z,17.54
2022-10-04T06:57:12.559Z,17.52
2022-10-04T06:58:14.463Z,17.53
2022-10-04T06:59:16.258Z,17.54
2022-10-04T07:00:18.080Z,17.53
2022-10-04T07:01:19.926Z,17.54
2022-10-04T07:02:21.787Z,17.54
2022-10-04T07:03:23.647Z,17.54
2022-10-04T07:04:25.470Z,17.55
2022-10-04T07:05:27.274Z,17.55
2022-10-04T07:06:29.490Z,17.54
2022-10-04T07:07:31.231Z,17.55
2022-10-04T07:08:33.046Z,17.56
2022-10-04T07:09:34.888Z,17.51
2022-10-04T07:10:36.787Z,17.56
2022-10-04T07:11:38.633Z,17.53
2022-10-04T07:12:42.987Z,17.52
2022-10-04T07:13:44.845Z,17.50
2022-10-04T07:14:46.648Z,17.51
2022-10-04T07:15:48.438Z,17.53
2022-10-04T07:16:50.280Z,17.53
2022-10-04T07:17:52.143Z,17.57
2022-10-04T07:18:53.948Z,17.57
2022-10-04T07:19:55.758Z,17.58
2022-10-04T07:20:57.573Z,17.59
2022-10-04T07:21:59.369Z,17.58
2022-10-04T07:23:01.221Z,17.58
2022-10-04T07:24:03.046Z,17.59
2022-10-04T07:25:04.868Z,17.60
2022-10-04T07:26:07.078Z,17.61
2022-10-04T07:27:08.979Z,17.62
2022-10-04T07:28:10.940Z,17.64
2022-10-04T07:29:12.790Z,17.63
2022-10-04T07:30:14.719Z,17.64
2022-10-04T07:31:16.587Z,17.63
2022-10-04T07:32:18.451Z,17.65
2022-10-04T07:33:20.287Z,17.67
2022-10-04T07:34:22.113Z,17.67
2022-10-04T07:35:23.948Z,17.68
2022-10-04T07:36:25.878Z,17.69
2022-10-04T07:37:27.663Z,17.69
2022-10-04T07:38:29.536Z,17.70
2022-10-04T07:39:31.334Z,17.69
2022-10-04T07:40:33.159Z,17.69
2022-10-04T07:41:34.968Z,17.70
2022-10-04T07:42:36.845Z,17.71
2022-10-04T07:43:38.686Z,17.71
2022-10-04T07:44:40.511Z,17.73
2022-10-04T07:45:42.360Z,17.72
2022-10-04T07:46:44.115Z,17.73
2022-10-04T07:47:45.931Z,17.75
2022-10-04T07:48:47.766Z,17.74
2022-10-04T07:49:49.593Z,17.76
2022-10-04T07:50:51.502Z,17.77
2022-10-04T07:51:53.315Z,17.77
2022-10-04T07:52:55.111Z,17.77
2022-10-04T07:53:56.976Z,17.77
2022-10-04T07:54:58.804Z,17.79
2022-10-04T07:56:00.594Z,17.81
2022-10-04T07:57:02.427Z,17.80
2022-10-04T07:58:04.228Z,17.81
2022-10-04T07:59:06.072Z,17.82
2022-10-04T08:00:08.286Z,17.84
2022-10-04T08:01:10.180Z,17.83
2022-10-04T08:02:12.230Z,17.84
2022-10-04T08:03:14.236Z,17.86
2022-10-04T08:04:16.076Z,17.86
2022-10-04T08:05:17.915Z,17.88
2022-10-04T08:06:19.743Z,17.86
2022-10-04T08:07:21.560Z,17.85
2022-10-04T08:08:23.402Z,17.84
2022-10-04T08:09:25.270Z,17.83
2022-10-04T08:10:27.102Z,17.85
2022-10-04T08:11:28.945Z,17.87
2022-10-04T08:12:30.766Z,17.87
2022-10-04T08:13:32.615Z,17.88
2022-10-04T08:14:34.492Z,17.86
2022-10-04T08:15:36.409Z,17.89
2022-10-04T08:16:38.463Z,17.89
2022-10-04T08:17:41.566Z,17.88
2022-10-04T08:18:43.364Z,17.89
2022-10-04T08:19:45.256Z,17.91
2022-10-04T08:20:47.102Z,17.90
2022-10-04T08:21:49.241Z,17.91
2022-10-04T08:22:51.089Z,17.89
2022-10-04T08:23:52.949Z,17.89
2022-10-04T08:24:54.808Z,17.91
2022-10-04T08:25:56.688Z,17.92
2022-10-04T08:26:58.526Z,17.91
2022-10-04T08:28:00.372Z,17.92
2022-10-04T08:29:02.251Z,17.93
2022-10-04T08:30:04.131Z,17.93
2022-10-04T08:31:06.005Z,17.91
2022-10-04T08:32:07.789Z,17.91
2022-10-04T08:33:09.618Z,17.89
2022-10-04T08:34:11.469Z,17.89
2022-10-04T08:35:13.343Z,17.90
2022-10-04T08:36:15.188Z,17.89
2022-10-04T08:37:17.031Z,17.92
2022-10-04T08:38:18.878Z,17.93
2022-10-04T08:39:20.708Z,17.90
2022-10-04T08:40:22.579Z,17.87
2022-10-04T08:41:24.536Z,17.86
2022-10-04T08:42:26.360Z,17.86
2022-10-04T08:43:28.209Z,17.87
2022-10-04T08:44:30.154Z,17.88
2022-10-04T08:45:32.030Z,17.91
2022-10-04T08:46:34.123Z,17.91
2022-10-04T08:47:36.109Z,17.91
2022-10-04T08:48:37.949Z,17.91
2022-10-04T08:49:39.807Z,17.91
2022-10-04T08:50:41.671Z,17.92
2022-10-04T08:51:43.522Z,17.92
2022-10-04T08:52:45.359Z,17.91
2022-10-04T08:53:47.202Z,17.92
2022-10-04T08:54:49.033Z,17.94
2022-10-04T08:55:51.908Z,17.93
2022-10-04T08:56:54.171Z,17.94
2022-10-04T08:57:55.985Z,17.94
2022-10-04T08:58:57.837Z,17.93
2022-10-04T08:59:59.761Z,17.93
2022-10-04T09:01:03.495Z,17.94
2022-10-04T09:02:05.311Z,17.95
2022-10-04T09:03:08.998Z,17.96
2022-10-04T09:04:10.789Z,17.98
2022-10-04T09:05:12.646Z,17.98
2022-10-04T09:06:15.877Z,18.01
2022-10-04T09:07:17.845Z,18.02
2022-10-04T09:08:19.695Z,18.03
2022-10-04T09:09:24.716Z,18.04
2022-10-04T09:10:26.518Z,18.06
2022-10-04T09:11:28.403Z,18.08
2022-10-04T09:12:30.244Z,18.08
2022-10-04T09:13:34.407Z,18.09
2022-10-04T09:14:36.284Z,18.11
2022-10-04T09:15:42.227Z,18.12
2022-10-04T09:16:45.623Z,18.13
2022-10-04T09:17:47.761Z,18.13
2022-10-04T09:18:49.626Z,18.16
2022-10-04T09:19:52.574Z,18.18
2022-10-04T09:20:56.227Z,18.20
2022-10-04T09:21:58.115Z,18.22
2022-10-04T09:23:06.284Z,18.24
2022-10-04T09:24:08.186Z,18.25
2022-10-04T09:25:10.017Z,18.27
2022-10-04T09:26:11.969Z,18.26
2022-10-04T09:27:17.347Z,18.25
2022-10-04T09:28:17.621Z,18.23
2022-10-04T09:29:19.539Z,18.22
2022-10-04T09:30:21.405Z,18.20
2022-10-04T09:31:23.349Z,18.19
2022-10-04T09:32:25.359Z,18.19
2022-10-04T09:33:27.185Z,18.19
2022-10-04T09:34:30.800Z,18.20
2022-10-04T09:35:32.713Z,18.22
2022-10-04T09:36:34.649Z,18.22
2022-10-04T09:37:36.528Z,18.20
2022-10-04T09:38:38.337Z,18.19
2022-10-04T09:39:40.165Z,18.19
2022-10-04T09:40:46.511Z,18.19
2022-10-04T09:41:45.983Z,18.19
2022-10-04T09:42:48.267Z,18.20
2022-10-04T09:43:50.110Z,18.21
2022-10-04T09:44:51.959Z,18.21
2022-10-04T09:45:56.161Z,18.21
2022-10-04T09:46:58.335Z,18.21
2022-10-04T09:48:00.171Z,18.20
2022-10-04T09:49:02.002Z,18.18
2022-10-04T09:50:04.246Z,18.20
2022-10-04T09:51:06.096Z,18.18
2022-10-04T09:52:07.937Z,18.18
2022-10-04T09:53:10.022Z,18.18
2022-10-04T09:54:11.851Z,18.17
2022-10-04T09:56:34.908Z,18.17
2022-10-04T09:57:36.751Z,18.17
2022-10-04T09:58:38.631Z,18.16
2022-10-04T09:59:40.490Z,18.15
2022-10-04T10:00:42.668Z,18.15
2022-10-04T10:01:44.615Z,18.15
2022-10-04T10:02:47.284Z,18.16
2022-10-04T10:03:49.284Z,18.17
2022-10-04T10:04:51.178Z,18.16
2022-10-04T10:05:53.002Z,18.17
2022-10-04T10:06:55.239Z,18.18
2022-10-04T10:07:57.094Z,18.17
2022-10-04T10:08:58.944Z,18.19
2022-10-04T10:10:00.770Z,18.19
2022-10-04T10:11:02.625Z,18.19
2022-10-04T10:12:04.462Z,18.20
2022-10-04T10:13:06.289Z,18.21
2022-10-04T10:14:08.149Z,18.20
2022-10-04T10:15:09.992Z,18.20
2022-10-04T10:16:12.106Z,18.21
2022-10-04T10:17:13.942Z,18.23
2022-10-04T10:18:15.792Z,18.23
2022-10-04T10:19:17.639Z,18.26
2022-10-04T10:20:19.641Z,18.27
2022-10-04T10:21:21.742Z,18.28
2022-10-04T10:22:23.544Z,18.29
2022-10-04T10:23:25.348Z,18.30
2022-10-04T10:24:27.199Z,18.29
2022-10-04T10:25:29.004Z,18.28
2022-10-04T10:26:30.825Z,18.29
2022-10-04T10:27:32.610Z,18.31
2022-10-04T10:28:34.455Z,18.32
2022-10-04T10:29:36.374Z,18.32
2022-10-04T10:30:38.294Z,18.32
2022-10-04T10:31:41.284Z,18.33
2022-10-04T10:32:43.626Z,18.33
2022-10-04T10:33:45.598Z,18.33
2022-10-04T10:34:47.451Z,18.33
2022-10-04T10:35:49.260Z,18.35
2022-10-04T10:36:51.062Z,18.37
2022-10-04T10:37:52.857Z,18.37
2022-10-04T10:38:54.674Z,18.38
2022-10-04T10:39:56.518Z,18.38
2022-10-04T10:40:58.299Z,18.39
2022-10-04T10:42:01.214Z,18.39
2022-10-04T10:49:12.349Z,18.30
2022-10-04T10:50:14.586Z,18.26
2022-10-04T10:51:16.414Z,18.23
2022-10-04T10:52:18.258Z,18.20
2022-10-04T10:53:20.038Z,18.19
2022-10-04T10:54:22.750Z,18.20
2022-10-04T10:55:24.580Z,18.23
2022-10-04T10:56:30.082Z,18.25
2022-10-04T10:57:30.022Z,18.26
2022-10-04T10:58:31.825Z,18.26
2022-10-04T10:59:33.667Z,18.24
2022-10-04T11:00:35.683Z,18.25
2022-10-04T11:01:37.629Z,18.27
2022-10-04T11:02:49.244Z,18.29
2022-10-04T11:03:43.398Z,18.32
2022-10-04T11:04:45.356Z,18.33
2022-10-04T11:05:47.289Z,18.35
2022-10-04T11:06:49.197Z,18.36
2022-10-04T11:07:50.987Z,18.35
2022-10-04T11:08:52.806Z,18.36
2022-10-04T11:09:54.657Z,18.36
2022-10-04T11:10:56.517Z,18.36
2022-10-04T11:11:58.410Z,18.36
2022-10-04T11:13:01.314Z,18.38
2022-10-04T11:14:03.158Z,18.37
2022-10-04T11:15:05.009Z,18.38
2022-10-04T11:16:06.863Z,18.37
2022-10-04T11:17:09.199Z,18.38
2022-10-04T11:18:11.040Z,18.38
2022-10-04T11:19:12.905Z,18.39
2022-10-04T11:20:15.069Z,18.39
2022-10-04T11:21:16.894Z,18.37
2022-10-04T11:22:18.697Z,18.41
2022-10-04T11:23:20.499Z,18.40
2022-10-04T11:24:22.327Z,18.39
2022-10-04T11:25:24.197Z,18.40
2022-10-04T11:26:26.085Z,18.41
2022-10-04T11:27:27.902Z,18.42
2022-10-04T11:28:29.813Z,18.41
2022-10-04T11:29:31.719Z,18.44
2022-10-04T11:30:33.836Z,18.42
2022-10-04T11:31:35.661Z,18.41
2022-10-04T11:32:37.429Z,18.42
2022-10-04T11:33:39.252Z,18.42
2022-10-04T11:34:41.069Z,18.42
2022-10-04T11:35:42.913Z,18.42
2022-10-04T11:36:45.182Z,18.44
2022-10-04T11:37:47.219Z,18.42
2022-10-04T11:38:49.043Z,18.41
2022-10-04T11:39:50.842Z,18.40
2022-10-04T11:40:52.789Z,18.40
2022-10-04T11:41:54.598Z,18.41
2022-10-04T11:42:56.440Z,18.41
2022-10-04T11:43:58.266Z,18.40
2022-10-04T11:45:00.073Z,18.39
2022-10-04T11:46:01.908Z,18.39
2022-10-04T11:47:03.819Z,18.39
2022-10-04T11:48:05.624Z,18.38
2022-10-04T11:49:07.426Z,18.37
2022-10-04T11:50:10.564Z,18.36
2022-10-04T11:51:12.434Z,18.35
2022-10-04T11:52:14.321Z,18.35
2022-10-04T11:53:16.170Z,18.36
2022-10-04T11:54:18.006Z,18.33
2022-10-04T11:55:19.830Z,18.32
2022-10-04T11:56:21.813Z,18.32
2022-10-04T11:57:23.662Z,18.33
2022-10-04T11:58:25.492Z,18.33
2022-10-04T11:59:27.324Z,18.33
2022-10-04T12:00:29.141Z,18.33
2022-10-04T12:01:31.216Z,18.34
2022-10-04T12:02:33.057Z,18.35
2022-10-04T12:03:34.928Z,18.35
2022-10-04T12:04:36.899Z,18.35
2022-10-04T12:05:38.748Z,18.34
2022-10-04T12:06:40.831Z,18.34
2022-10-04T12:07:42.688Z,18.34
2022-10-04T12:08:44.538Z,18.34
2022-10-04T12:09:46.373Z,18.35
2022-10-04T12:10:48.309Z,18.34
2022-10-04T12:11:50.190Z,18.34
2022-10-04T12:12:52.029Z,18.33
2022-10-04T12:13:53.875Z,18.34
2022-10-04T12:14:55.695Z,18.36
2022-10-04T12:15:57.564Z,18.36
2022-10-04T12:16:59.609Z,18.36
2022-10-04T12:18:01.450Z,18.36
2022-10-04T12:19:03.286Z,18.36
2022-10-04T12:20:11.855Z,18.36
2022-10-04T12:21:10.575Z,18.34
2022-10-04T12:22:12.435Z,18.33
2022-10-04T12:23:14.293Z,18.33
2022-10-04T12:24:16.128Z,18.32
2022-10-04T12:25:17.960Z,18.33
2022-10-04T12:26:20.105Z,18.34
2022-10-04T12:27:22.798Z,18.32
2022-10-04T12:28:24.694Z,18.33
2022-10-04T12:29:26.582Z,18.32
2022-10-04T12:30:28.425Z,18.31
2022-10-04T12:31:30.302Z,18.31
2022-10-04T12:32:32.091Z,18.30
2022-10-04T12:33:33.894Z,18.27
2022-10-04T12:34:35.696Z,18.25
2022-10-04T12:35:37.508Z,18.23
2022-10-04T12:36:39.427Z,18.23
2022-10-04T12:37:41.436Z,18.23
2022-10-04T12:38:43.262Z,18.20
2022-10-04T12:39:45.099Z,18.19
2022-10-04T12:40:47.007Z,18.19
2022-10-04T12:41:48.815Z,18.19
2022-10-04T12:42:50.661Z,18.19
2022-10-04T12:43:52.477Z,18.18
2022-10-04T12:44:54.286Z,18.17
2022-10-04T12:45:56.202Z,18.17
2022-10-04T12:46:58.403Z,18.17
2022-10-04T12:48:00.249Z,18.17
2022-10-04T12:49:02.062Z,18.17
2022-10-04T12:50:03.976Z,18.17
2022-10-04T12:51:05.786Z,18.18
2022-10-04T12:52:07.595Z,18.19
2022-10-04T12:53:09.435Z,18.19
2022-10-04T12:54:11.260Z,18.18
2022-10-04T12:55:13.077Z,18.18
2022-10-04T12:56:15.101Z,18.18
2022-10-04T12:57:16.894Z,18.18
2022-10-04T12:58:21.143Z,18.17
2022-10-04T12:59:22.993Z,18.18
2022-10-04T13:00:24.889Z,18.18
2022-10-04T13:01:26.872Z,18.18
2022-10-04T13:02:28.832Z,18.18
2022-10-04T13:03:30.740Z,18.18
2022-10-04T13:04:32.571Z,18.17
2022-10-04T13:05:34.378Z,18.16
2022-10-04T13:06:38.906Z,18.16
2022-10-04T13:07:39.901Z,18.18
2022-10-04T13:08:41.770Z,18.18
2022-10-04T13:09:59.849Z,18.20
2022-10-04T13:11:08.038Z,18.21
2022-10-04T13:12:09.827Z,18.21
2022-10-04T13:13:11.635Z,18.21
2022-10-04T13:14:13.473Z,18.21
2022-10-04T13:15:15.283Z,18.20
2022-10-04T13:17:30.217Z,18.17
2022-10-04T13:18:24.374Z,18.15
2022-10-04T13:19:26.210Z,18.14
2022-10-04T13:20:28.017Z,18.14
2022-10-04T13:21:29.841Z,18.13
2022-10-04T13:22:55.404Z,18.14
2022-10-04T13:23:35.262Z,18.14
2022-10-04T13:24:37.134Z,18.14
2022-10-04T13:25:38.972Z,18.14
2022-10-04T13:26:40.888Z,18.14